sensor_id;sensor_type;location;lat;lon;timestamp;temperature;humidity
33994;DHT22;20673;48.980;8.138;2023-10-08T00:00:48;14.80;49.80
33994;DHT22;20673;48.980;8.138;2023-10-08T00:03:19;14.80;46.80
33994;DHT22;20673;48.980;8.138;2023-10-08T00:05:48;14.90;44.90
33994;DHT22;20673;48.980;8.138;2023-10-08T00:08:17;14.90;44.10
33994;DHT22;20673;48.980;8.138;2023-10-08T00:10:44;14.80;46.40
33994;DHT22;20673;48.980;8.138;2023-10-08T00:13:14;14.80;41.80
33994;DHT22;20673;48.980;8.138;2023-10-08T00:15:44;14.90;41.60
33994;DHT22;20673;48.980;8.138;2023-10-08T00:18:16;14.90;39.40
33994;DHT22;20673;48.980;8.138;2023-10-08T00:20:43;14.80;41.90
33994;DHT22;20673;48.980;8.138;2023-10-08T00:23:17;14.70;45.50
33994;DHT22;20673;48.980;8.138;2023-10-08T00:25:43;14.70;48.10
33994;DHT22;20673;48.980;8.138;2023-10-08T00:28:11;14.60;45.70
33994;DHT22;20673;48.980;8.138;2023-10-08T00:30:40;14.60;44.70
33994;DHT22;20673;48.980;8.138;2023-10-08T00:33:10;14.70;41.50
33994;DHT22;20673;48.980;8.138;2023-10-08T00:35:42;14.80;38.20
33994;DHT22;20673;48.980;8.138;2023-10-08T00:38:09;14.90;34.90
33994;DHT22;20673;48.980;8.138;2023-10-08T00:40:43;15.00;31.40
33994;DHT22;20673;48.980;8.138;2023-10-08T00:43:31;15.00;30.30
33994;DHT22;20673;48.980;8.138;2023-10-08T00:46:03;15.10;28.80
33994;DHT22;20673;48.980;8.138;2023-10-08T00:48:34;15.00;30.40
33994;DHT22;20673;48.980;8.138;2023-10-08T00:51:05;15.00;32.70
33994;DHT22;20673;48.980;8.138;2023-10-08T00:53:36;14.90;32.60
33994;DHT22;20673;48.980;8.138;2023-10-08T00:56:07;14.90;36.90
33994;DHT22;20673;48.980;8.138;2023-10-08T00:58:36;14.90;33.80
33994;DHT22;20673;48.980;8.138;2023-10-08T01:01:03;14.90;33.40
33994;DHT22;20673;48.980;8.138;2023-10-08T01:03:31;14.90;29.70
33994;DHT22;20673;48.980;8.138;2023-10-08T01:05:59;14.90;33.20
33994;DHT22;20673;48.980;8.138;2023-10-08T01:08:26;14.90;33.30
33994;DHT22;20673;48.980;8.138;2023-10-08T01:11:24;14.80;34.30
33994;DHT22;20673;48.980;8.138;2023-10-08T01:13:58;14.70;37.80
33994;DHT22;20673;48.980;8.138;2023-10-08T01:16:26;14.60;39.00
33994;DHT22;20673;48.980;8.138;2023-10-08T01:18:53;14.60;39.10
33994;DHT22;20673;48.980;8.138;2023-10-08T01:21:20;14.70;34.60
33994;DHT22;20673;48.980;8.138;2023-10-08T01:23:57;14.80;32.40
33994;DHT22;20673;48.980;8.138;2023-10-08T01:26:25;14.80;33.40
33994;DHT22;20673;48.980;8.138;2023-10-08T01:28:52;14.60;38.70
33994;DHT22;20673;48.980;8.138;2023-10-08T01:31:18;14.60;37.00
33994;DHT22;20673;48.980;8.138;2023-10-08T01:33:44;14.60;38.10
33994;DHT22;20673;48.980;8.138;2023-10-08T01:36:16;14.60;37.20
33994;DHT22;20673;48.980;8.138;2023-10-08T01:38:42;14.50;38.10
33994;DHT22;20673;48.980;8.138;2023-10-08T01:41:08;14.50;41.20
33994;DHT22;20673;48.980;8.138;2023-10-08T01:43:45;14.60;38.00
33994;DHT22;20673;48.980;8.138;2023-10-08T01:46:11;14.50;37.50
33994;DHT22;20673;48.980;8.138;2023-10-08T01:48:41;14.50;38.30
33994;DHT22;20673;48.980;8.138;2023-10-08T01:51:10;14.50;38.30
33994;DHT22;20673;48.980;8.138;2023-10-08T01:53:38;14.40;38.40
33994;DHT22;20673;48.980;8.138;2023-10-08T01:56:05;14.30;40.20
33994;DHT22;20673;48.980;8.138;2023-10-08T01:58:32;14.30;38.50
33994;DHT22;20673;48.980;8.138;2023-10-08T02:01:01;14.30;37.00
33994;DHT22;20673;48.980;8.138;2023-10-08T02:03:29;14.30;37.00
33994;DHT22;20673;48.980;8.138;2023-10-08T02:05:55;14.20;39.80
33994;DHT22;20673;48.980;8.138;2023-10-08T02:08:23;14.20;40.90
33994;DHT22;20673;48.980;8.138;2023-10-08T02:10:52;14.10;38.00
33994;DHT22;20673;48.980;8.138;2023-10-08T02:13:18;14.00;43.60
33994;DHT22;20673;48.980;8.138;2023-10-08T02:15:51;14.00;39.40
33994;DHT22;20673;48.980;8.138;2023-10-08T02:18:20;14.00;36.90
33994;DHT22;20673;48.980;8.138;2023-10-08T02:20:48;14.10;35.20
33994;DHT22;20673;48.980;8.138;2023-10-08T02:23:14;14.10;31.90
33994;DHT22;20673;48.980;8.138;2023-10-08T02:25:41;14.00;32.90
33994;DHT22;20673;48.980;8.138;2023-10-08T02:28:07;13.90;38.10
33994;DHT22;20673;48.980;8.138;2023-10-08T02:30:38;13.80;40.00
33994;DHT22;20673;48.980;8.138;2023-10-08T02:33:05;13.80;39.80
33994;DHT22;20673;48.980;8.138;2023-10-08T02:35:42;13.70;38.80
33994;DHT22;20673;48.980;8.138;2023-10-08T02:38:12;13.70;39.90
33994;DHT22;20673;48.980;8.138;2023-10-08T02:40:41;13.70;40.50
33994;DHT22;20673;48.980;8.138;2023-10-08T02:43:09;13.70;40.90
33994;DHT22;20673;48.980;8.138;2023-10-08T02:45:37;13.80;40.50
33994;DHT22;20673;48.980;8.138;2023-10-08T02:48:09;13.80;35.90
33994;DHT22;20673;48.980;8.138;2023-10-08T02:50:39;13.80;35.50
33994;DHT22;20673;48.980;8.138;2023-10-08T02:53:06;13.70;36.00
33994;DHT22;20673;48.980;8.138;2023-10-08T02:55:39;13.70;35.70
33994;DHT22;20673;48.980;8.138;2023-10-08T02:58:13;13.70;36.40
33994;DHT22;20673;48.980;8.138;2023-10-08T03:00:46;13.70;36.50
33994;DHT22;20673;48.980;8.138;2023-10-08T03:03:16;13.70;36.00
33994;DHT22;20673;48.980;8.138;2023-10-08T03:05:51;13.60;38.80
33994;DHT22;20673;48.980;8.138;2023-10-08T03:08:19;13.50;41.10
33994;DHT22;20673;48.980;8.138;2023-10-08T03:10:51;13.70;35.50
33994;DHT22;20673;48.980;8.138;2023-10-08T03:13:22;13.60;39.00
33994;DHT22;20673;48.980;8.138;2023-10-08T03:15:48;13.50;42.50
33994;DHT22;20673;48.980;8.138;2023-10-08T03:18:25;13.30;53.50
33994;DHT22;20673;48.980;8.138;2023-10-08T03:20:54;13.30;49.70
33994;DHT22;20673;48.980;8.138;2023-10-08T03:23:22;13.30;51.60
33994;DHT22;20673;48.980;8.138;2023-10-08T03:25:54;13.20;54.20
33994;DHT22;20673;48.980;8.138;2023-10-08T03:28:24;13.30;50.80
33994;DHT22;20673;48.980;8.138;2023-10-08T03:30:51;13.30;50.50
33994;DHT22;20673;48.980;8.138;2023-10-08T03:33:20;13.40;49.50
33994;DHT22;20673;48.980;8.138;2023-10-08T03:35:49;13.40;50.00
33994;DHT22;20673;48.980;8.138;2023-10-08T03:38:21;13.30;51.90
33994;DHT22;20673;48.980;8.138;2023-10-08T03:40:49;13.20;54.20
33994;DHT22;20673;48.980;8.138;2023-10-08T03:43:16;13.20;57.10
33994;DHT22;20673;48.980;8.138;2023-10-08T03:45:53;13.00;61.00
33994;DHT22;20673;48.980;8.138;2023-10-08T03:48:22;12.90;71.30
33994;DHT22;20673;48.980;8.138;2023-10-08T03:50:49;13.00;72.20
33994;DHT22;20673;48.980;8.138;2023-10-08T03:53:17;12.90;75.00
33994;DHT22;20673;48.980;8.138;2023-10-08T03:55:43;12.90;80.50
33994;DHT22;20673;48.980;8.138;2023-10-08T03:58:09;12.80;81.90
33994;DHT22;20673;48.980;8.138;2023-10-08T04:00:37;12.70;88.60
33994;DHT22;20673;48.980;8.138;2023-10-08T04:03:05;12.60;91.10
33994;DHT22;20673;48.980;8.138;2023-10-08T04:05:35;12.50;93.30
33994;DHT22;20673;48.980;8.138;2023-10-08T04:08:13;12.30;98.80
33994;DHT22;20673;48.980;8.138;2023-10-08T04:10:53;12.30;98.90
33994;DHT22;20673;48.980;8.138;2023-10-08T04:13:36;12.20;99.90
33994;DHT22;20673;48.980;8.138;2023-10-08T04:16:04;12.20;99.90
33994;DHT22;20673;48.980;8.138;2023-10-08T04:18:31;12.10;99.90
33994;DHT22;20673;48.980;8.138;2023-10-08T04:20:59;12.10;99.90
33994;DHT22;20673;48.980;8.138;2023-10-08T04:23:26;12.10;99.90
33994;DHT22;20673;48.980;8.138;2023-10-08T04:25:53;12.00;99.90
33994;DHT22;20673;48.980;8.138;2023-10-08T04:28:22;12.10;99.90
33994;DHT22;20673;48.980;8.138;2023-10-08T04:30:50;12.00;99.90
33994;DHT22;20673;48.980;8.138;2023-10-08T04:33:17;12.00;99.90
33994;DHT22;20673;48.980;8.138;2023-10-08T04:35:45;12.10;99.90
33994;DHT22;20673;48.980;8.138;2023-10-08T04:38:24;12.00;99.90
33994;DHT22;20673;48.980;8.138;2023-10-08T04:40:52;12.10;99.90
33994;DHT22;20673;48.980;8.138;2023-10-08T04:43:22;12.10;99.90
33994;DHT22;20673;48.980;8.138;2023-10-08T04:45:57;12.20;99.90
33994;DHT22;20673;48.980;8.138;2023-10-08T04:48:24;12.10;99.90
33994;DHT22;20673;48.980;8.138;2023-10-08T04:50:53;12.00;99.90
33994;DHT22;20673;48.980;8.138;2023-10-08T04:53:29;12.00;99.90
33994;DHT22;20673;48.980;8.138;2023-10-08T04:56:04;12.10;99.90
33994;DHT22;20673;48.980;8.138;2023-10-08T04:58:34;12.00;99.90
33994;DHT22;20673;48.980;8.138;2023-10-08T05:01:03;12.00;99.90
33994;DHT22;20673;48.980;8.138;2023-10-08T05:03:51;11.80;99.90
33994;DHT22;20673;48.980;8.138;2023-10-08T05:06:33;11.70;99.90
33994;DHT22;20673;48.980;8.138;2023-10-08T05:09:09;11.70;99.90
33994;DHT22;20673;48.980;8.138;2023-10-08T05:11:40;11.70;99.90
33994;DHT22;20673;48.980;8.138;2023-10-08T05:14:24;11.60;99.90
33994;DHT22;20673;48.980;8.138;2023-10-08T05:16:55;11.50;99.90
33994;DHT22;20673;48.980;8.138;2023-10-08T05:19:38;11.60;99.90
33994;DHT22;20673;48.980;8.138;2023-10-08T05:22:08;11.50;99.90
33994;DHT22;20673;48.980;8.138;2023-10-08T05:24:47;11.50;99.90
33994;DHT22;20673;48.980;8.138;2023-10-08T05:27:38;11.40;99.90
33994;DHT22;20673;48.980;8.138;2023-10-08T05:30:25;11.40;99.90
33994;DHT22;20673;48.980;8.138;2023-10-08T05:32:56;11.40;99.90
33994;DHT22;20673;48.980;8.138;2023-10-08T05:35:32;11.30;99.90
33994;DHT22;20673;48.980;8.138;2023-10-08T05:38:11;11.30;99.90
33994;DHT22;20673;48.980;8.138;2023-10-08T05:40:58;11.30;99.90
33994;DHT22;20673;48.980;8.138;2023-10-08T05:43:29;11.30;99.90
33994;DHT22;20673;48.980;8.138;2023-10-08T05:46:01;11.30;99.90
33994;DHT22;20673;48.980;8.138;2023-10-08T05:48:45;11.30;99.90
33994;DHT22;20673;48.980;8.138;2023-10-08T05:51:13;11.30;99.90
33994;DHT22;20673;48.980;8.138;2023-10-08T05:53:41;11.40;99.90
33994;DHT22;20673;48.980;8.138;2023-10-08T05:56:10;11.50;99.90
33994;DHT22;20673;48.980;8.138;2023-10-08T05:58:43;11.60;99.90
33994;DHT22;20673;48.980;8.138;2023-10-08T06:01:14;11.80;99.90
33994;DHT22;20673;48.980;8.138;2023-10-08T06:03:42;12.00;99.90
33994;DHT22;20673;48.980;8.138;2023-10-08T06:06:16;12.20;99.90
33994;DHT22;20673;48.980;8.138;2023-10-08T06:08:45;12.30;99.90
33994;DHT22;20673;48.980;8.138;2023-10-08T06:11:21;12.40;99.90
33994;DHT22;20673;48.980;8.138;2023-10-08T06:13:55;12.50;99.90
33994;DHT22;20673;48.980;8.138;2023-10-08T06:16:23;12.70;95.20
33994;DHT22;20673;48.980;8.138;2023-10-08T06:18:59;12.80;93.40
33994;DHT22;20673;48.980;8.138;2023-10-08T06:21:26;12.90;86.20
33994;DHT22;20673;48.980;8.138;2023-10-08T06:23:52;13.00;74.80
33994;DHT22;20673;48.980;8.138;2023-10-08T06:26:20;13.10;70.70
33994;DHT22;20673;48.980;8.138;2023-10-08T06:28:48;13.20;58.00
33994;DHT22;20673;48.980;8.138;2023-10-08T06:31:14;13.30;52.40
33994;DHT22;20673;48.980;8.138;2023-10-08T06:33:44;13.50;44.40
33994;DHT22;20673;48.980;8.138;2023-10-08T06:36:11;13.60;44.70
33994;DHT22;20673;48.980;8.138;2023-10-08T06:38:40;13.70;41.00
33994;DHT22;20673;48.980;8.138;2023-10-08T06:41:13;13.70;44.80
33994;DHT22;20673;48.980;8.138;2023-10-08T06:43:42;13.70;46.70
33994;DHT22;20673;48.980;8.138;2023-10-08T06:46:10;13.70;44.80
33994;DHT22;20673;48.980;8.138;2023-10-08T06:48:40;13.70;48.00
33994;DHT22;20673;48.980;8.138;2023-10-08T06:51:12;13.70;47.20
33994;DHT22;20673;48.980;8.138;2023-10-08T06:53:40;13.90;43.60
33994;DHT22;20673;48.980;8.138;2023-10-08T06:56:07;13.90;41.10
33994;DHT22;20673;48.980;8.138;2023-10-08T06:58:35;14.10;42.60
33994;DHT22;20673;48.980;8.138;2023-10-08T07:01:02;14.20;35.80
33994;DHT22;20673;48.980;8.138;2023-10-08T07:03:33;14.30;26.70
33994;DHT22;20673;48.980;8.138;2023-10-08T07:06:00;14.50;22.20
33994;DHT22;20673;48.980;8.138;2023-10-08T07:08:32;14.50;20.70
33994;DHT22;20673;48.980;8.138;2023-10-08T07:11:02;14.70;14.10
33994;DHT22;20673;48.980;8.138;2023-10-08T07:13:37;14.80;11.60
33994;DHT22;20673;48.980;8.138;2023-10-08T07:16:05;14.90;8.30
33994;DHT22;20673;48.980;8.138;2023-10-08T07:18:33;14.90;9.60
33994;DHT22;20673;48.980;8.138;2023-10-08T07:21:02;15.00;9.60
33994;DHT22;20673;48.980;8.138;2023-10-08T07:23:30;15.10;7.30
33994;DHT22;20673;48.980;8.138;2023-10-08T07:26:02;15.20;7.90
33994;DHT22;20673;48.980;8.138;2023-10-08T07:28:41;15.30;11.40
33994;DHT22;20673;48.980;8.138;2023-10-08T07:33:48;15.70;8.50
33994;DHT22;20673;48.980;8.138;2023-10-08T07:36:23;15.80;2.20
33994;DHT22;20673;48.980;8.138;2023-10-08T07:38:53;16.00;1.00
33994;DHT22;20673;48.980;8.138;2023-10-08T07:41:20;16.20;1.00
33994;DHT22;20673;48.980;8.138;2023-10-08T07:43:47;16.30;1.00
33994;DHT22;20673;48.980;8.138;2023-10-08T07:46:25;16.50;1.00
33994;DHT22;20673;48.980;8.138;2023-10-08T07:48:52;16.60;1.00
33994;DHT22;20673;48.980;8.138;2023-10-08T07:51:23;16.70;1.00
33994;DHT22;20673;48.980;8.138;2023-10-08T07:53:51;16.90;1.00
33994;DHT22;20673;48.980;8.138;2023-10-08T07:56:23;17.00;1.00
33994;DHT22;20673;48.980;8.138;2023-10-08T07:58:52;17.20;1.00
33994;DHT22;20673;48.980;8.138;2023-10-08T08:01:23;17.30;1.00
33994;DHT22;20673;48.980;8.138;2023-10-08T08:03:52;17.40;1.00
33994;DHT22;20673;48.980;8.138;2023-10-08T08:06:19;17.70;1.00
33994;DHT22;20673;48.980;8.138;2023-10-08T08:08:45;18.00;1.00
33994;DHT22;20673;48.980;8.138;2023-10-08T08:11:11;18.10;1.00
33994;DHT22;20673;48.980;8.138;2023-10-08T08:13:39;18.30;1.00
33994;DHT22;20673;48.980;8.138;2023-10-08T08:16:12;18.20;1.00
33994;DHT22;20673;48.980;8.138;2023-10-08T08:18:49;18.20;1.00
33994;DHT22;20673;48.980;8.138;2023-10-08T08:21:18;18.10;1.00
33994;DHT22;20673;48.980;8.138;2023-10-08T08:23:46;18.10;1.00
33994;DHT22;20673;48.980;8.138;2023-10-08T08:26:17;18.00;1.00
33994;DHT22;20673;48.980;8.138;2023-10-08T08:28:56;18.20;1.00
33994;DHT22;20673;48.980;8.138;2023-10-08T08:31:25;18.50;1.00
33994;DHT22;20673;48.980;8.138;2023-10-08T08:33:53;18.80;1.00
33994;DHT22;20673;48.980;8.138;2023-10-08T08:36:20;19.00;1.00
33994;DHT22;20673;48.980;8.138;2023-10-08T08:38:47;19.10;1.00
33994;DHT22;20673;48.980;8.138;2023-10-08T08:41:14;19.30;1.00
33994;DHT22;20673;48.980;8.138;2023-10-08T08:43:43;19.50;1.00
33994;DHT22;20673;48.980;8.138;2023-10-08T08:46:11;19.70;1.00
33994;DHT22;20673;48.980;8.138;2023-10-08T08:48:40;19.70;1.00
33994;DHT22;20673;48.980;8.138;2023-10-08T08:51:07;19.60;1.00
33994;DHT22;20673;48.980;8.138;2023-10-08T08:53:36;19.80;1.00
33994;DHT22;20673;48.980;8.138;2023-10-08T08:56:08;20.00;1.00
33994;DHT22;20673;48.980;8.138;2023-10-08T08:58:36;20.10;1.00
33994;DHT22;20673;48.980;8.138;2023-10-08T09:01:06;20.30;1.00
33994;DHT22;20673;48.980;8.138;2023-10-08T09:03:35;20.30;1.00
33994;DHT22;20673;48.980;8.138;2023-10-08T09:06:02;20.70;1.00
33994;DHT22;20673;48.980;8.138;2023-10-08T09:08:38;20.70;1.00
33994;DHT22;20673;48.980;8.138;2023-10-08T09:11:03;21.00;1.00
33994;DHT22;20673;48.980;8.138;2023-10-08T09:13:34;21.20;1.00
33994;DHT22;20673;48.980;8.138;2023-10-08T09:16:06;21.40;1.00
33994;DHT22;20673;48.980;8.138;2023-10-08T09:18:36;21.70;1.00
33994;DHT22;20673;48.980;8.138;2023-10-08T09:21:17;22.20;1.00
33994;DHT22;20673;48.980;8.138;2023-10-08T09:23:51;22.40;1.00
33994;DHT22;20673;48.980;8.138;2023-10-08T09:26:25;22.50;1.00
33994;DHT22;20673;48.980;8.138;2023-10-08T09:28:53;22.70;1.00
33994;DHT22;20673;48.980;8.138;2023-10-08T09:31:25;22.70;1.00
33994;DHT22;20673;48.980;8.138;2023-10-08T09:33:54;22.90;1.00
33994;DHT22;20673;48.980;8.138;2023-10-08T09:36:22;22.70;1.00
33994;DHT22;20673;48.980;8.138;2023-10-08T09:38:52;22.60;1.00
33994;DHT22;20673;48.980;8.138;2023-10-08T09:41:19;22.80;1.00
33994;DHT22;20673;48.980;8.138;2023-10-08T09:43:46;23.10;1.00
33994;DHT22;20673;48.980;8.138;2023-10-08T09:46:23;23.40;1.00
33994;DHT22;20673;48.980;8.138;2023-10-08T09:48:59;23.70;1.00
33994;DHT22;20673;48.980;8.138;2023-10-08T09:51:28;24.30;1.00
33994;DHT22;20673;48.980;8.138;2023-10-08T09:54:04;24.60;1.00
33994;DHT22;20673;48.980;8.138;2023-10-08T09:56:36;24.50;1.00
33994;DHT22;20673;48.980;8.138;2023-10-08T09:59:04;24.50;1.00
33994;DHT22;20673;48.980;8.138;2023-10-08T10:01:33;24.50;1.00
33994;DHT22;20673;48.980;8.138;2023-10-08T10:03:59;24.80;1.00
33994;DHT22;20673;48.980;8.138;2023-10-08T10:06:26;25.20;1.00
33994;DHT22;20673;48.980;8.138;2023-10-08T10:08:55;25.30;1.00
33994;DHT22;20673;48.980;8.138;2023-10-08T10:11:30;25.60;1.00
33994;DHT22;20673;48.980;8.138;2023-10-08T10:14:00;25.70;1.00
33994;DHT22;20673;48.980;8.138;2023-10-08T10:16:27;25.60;1.00
33994;DHT22;20673;48.980;8.138;2023-10-08T10:18:59;25.50;1.00
33994;DHT22;20673;48.980;8.138;2023-10-08T10:21:31;25.50;1.00
33994;DHT22;20673;48.980;8.138;2023-10-08T10:23:59;25.70;1.00
33994;DHT22;20673;48.980;8.138;2023-10-08T10:26:30;25.60;1.00
33994;DHT22;20673;48.980;8.138;2023-10-08T10:31:45;26.50;1.00
33994;DHT22;20673;48.980;8.138;2023-10-08T10:34:24;26.80;1.00
33994;DHT22;20673;48.980;8.138;2023-10-08T10:36:57;27.20;1.00
33994;DHT22;20673;48.980;8.138;2023-10-08T10:39:26;27.40;1.00
33994;DHT22;20673;48.980;8.138;2023-10-08T10:41:55;27.00;1.00
33994;DHT22;20673;48.980;8.138;2023-10-08T10:44:30;27.00;1.00
33994;DHT22;20673;48.980;8.138;2023-10-08T10:46:59;26.90;1.00
33994;DHT22;20673;48.980;8.138;2023-10-08T10:49:46;26.70;1.00
33994;DHT22;20673;48.980;8.138;2023-10-08T10:52:26;26.60;1.00
33994;DHT22;20673;48.980;8.138;2023-10-08T10:55:03;26.40;1.00
33994;DHT22;20673;48.980;8.138;2023-10-08T11:00:32;26.90;1.00
33994;DHT22;20673;48.980;8.138;2023-10-08T11:03:02;27.30;1.00
33994;DHT22;20673;48.980;8.138;2023-10-08T11:05:37;27.50;1.00
33994;DHT22;20673;48.980;8.138;2023-10-08T11:08:02;27.90;1.00
33994;DHT22;20673;48.980;8.138;2023-10-08T11:10:34;27.70;1.00
33994;DHT22;20673;48.980;8.138;2023-10-08T11:13:05;27.90;1.00
33994;DHT22;20673;48.980;8.138;2023-10-08T11:15:34;28.20;1.00
33994;DHT22;20673;48.980;8.138;2023-10-08T11:18:10;27.80;1.00
33994;DHT22;20673;48.980;8.138;2023-10-08T11:20:37;28.10;1.00
33994;DHT22;20673;48.980;8.138;2023-10-08T11:23:06;27.80;1.00
33994;DHT22;20673;48.980;8.138;2023-10-08T11:25:58;27.70;1.00
33994;DHT22;20673;48.980;8.138;2023-10-08T11:28:38;27.40;1.00
33994;DHT22;20673;48.980;8.138;2023-10-08T11:31:10;27.20;1.00
33994;DHT22;20673;48.980;8.138;2023-10-08T11:33:43;27.00;1.00
33994;DHT22;20673;48.980;8.138;2023-10-08T11:36:08;26.90;1.00
33994;DHT22;20673;48.980;8.138;2023-10-08T11:38:45;27.10;1.00
33994;DHT22;20673;48.980;8.138;2023-10-08T11:41:17;27.00;1.00
33994;DHT22;20673;48.980;8.138;2023-10-08T11:43:53;26.70;1.00
33994;DHT22;20673;48.980;8.138;2023-10-08T11:46:28;26.60;1.00
33994;DHT22;20673;48.980;8.138;2023-10-08T11:49:09;26.50;1.00
33994;DHT22;20673;48.980;8.138;2023-10-08T11:51:37;26.40;1.00
33994;DHT22;20673;48.980;8.138;2023-10-08T11:54:06;26.20;1.00
33994;DHT22;20673;48.980;8.138;2023-10-08T11:56:33;26.20;1.00
33994;DHT22;20673;48.980;8.138;2023-10-08T11:59:04;26.00;1.00
33994;DHT22;20673;48.980;8.138;2023-10-08T12:01:35;26.20;1.00
33994;DHT22;20673;48.980;8.138;2023-10-08T12:04:03;26.40;1.00
33994;DHT22;20673;48.980;8.138;2023-10-08T12:06:30;26.30;1.00
33994;DHT22;20673;48.980;8.138;2023-10-08T12:08:58;26.50;1.00
33994;DHT22;20673;48.980;8.138;2023-10-08T12:11:25;26.50;1.00
33994;DHT22;20673;48.980;8.138;2023-10-08T12:13:58;26.60;1.00
33994;DHT22;20673;48.980;8.138;2023-10-08T12:16:25;26.60;1.00
33994;DHT22;20673;48.980;8.138;2023-10-08T12:18:54;26.70;1.00
33994;DHT22;20673;48.980;8.138;2023-10-08T12:21:27;26.90;1.00
33994;DHT22;20673;48.980;8.138;2023-10-08T12:24:00;27.00;1.00
33994;DHT22;20673;48.980;8.138;2023-10-08T12:26:31;27.30;1.00
33994;DHT22;20673;48.980;8.138;2023-10-08T12:28:57;27.20;1.00
33994;DHT22;20673;48.980;8.138;2023-10-08T12:31:26;27.30;1.00
33994;DHT22;20673;48.980;8.138;2023-10-08T12:33:54;27.50;1.00
33994;DHT22;20673;48.980;8.138;2023-10-08T12:36:23;27.60;1.00
33994;DHT22;20673;48.980;8.138;2023-10-08T12:38:51;27.40;1.00
33994;DHT22;20673;48.980;8.138;2023-10-08T12:41:24;27.20;1.00
33994;DHT22;20673;48.980;8.138;2023-10-08T12:43:53;27.30;1.00
33994;DHT22;20673;48.980;8.138;2023-10-08T12:46:21;27.10;1.00
33994;DHT22;20673;48.980;8.138;2023-10-08T12:48:50;27.10;1.00
33994;DHT22;20673;48.980;8.138;2023-10-08T12:51:24;27.20;1.00
33994;DHT22;20673;48.980;8.138;2023-10-08T12:53:52;27.40;1.00
33994;DHT22;20673;48.980;8.138;2023-10-08T12:56:26;27.70;1.00
33994;DHT22;20673;48.980;8.138;2023-10-08T12:59:02;27.50;1.00
33994;DHT22;20673;48.980;8.138;2023-10-08T13:01:36;27.40;1.00
33994;DHT22;20673;48.980;8.138;2023-10-08T13:04:04;27.80;1.00
33994;DHT22;20673;48.980;8.138;2023-10-08T13:06:35;28.10;1.00
33994;DHT22;20673;48.980;8.138;2023-10-08T13:09:05;28.20;1.00
33994;DHT22;20673;48.980;8.138;2023-10-08T13:11:40;28.20;1.00
33994;DHT22;20673;48.980;8.138;2023-10-08T13:14:08;28.20;1.00
33994;DHT22;20673;48.980;8.138;2023-10-08T13:16:36;28.40;1.00
33994;DHT22;20673;48.980;8.138;2023-10-08T13:19:03;28.70;1.00
33994;DHT22;20673;48.980;8.138;2023-10-08T13:21:30;28.80;1.00
33994;DHT22;20673;48.980;8.138;2023-10-08T13:23:58;29.00;1.00
33994;DHT22;20673;48.980;8.138;2023-10-08T13:26:26;29.40;1.00
33994;DHT22;20673;48.980;8.138;2023-10-08T13:28:54;29.30;1.00
33994;DHT22;20673;48.980;8.138;2023-10-08T13:31:20;29.10;1.00
33994;DHT22;20673;48.980;8.138;2023-10-08T13:33:47;29.20;1.00
33994;DHT22;20673;48.980;8.138;2023-10-08T13:36:18;29.20;1.00
33994;DHT22;20673;48.980;8.138;2023-10-08T13:38:45;29.50;1.00
33994;DHT22;20673;48.980;8.138;2023-10-08T13:41:12;29.50;1.00
33994;DHT22;20673;48.980;8.138;2023-10-08T13:43:48;29.60;1.00
33994;DHT22;20673;48.980;8.138;2023-10-08T13:46:15;29.50;99.90
33994;DHT22;20673;48.980;8.138;2023-10-08T13:48:45;29.40;99.90
33994;DHT22;20673;48.980;8.138;2023-10-08T13:51:19;29.20;99.90
33994;DHT22;20673;48.980;8.138;2023-10-08T13:53:50;28.90;99.90
33994;DHT22;20673;48.980;8.138;2023-10-08T13:56:21;28.90;99.90
33994;DHT22;20673;48.980;8.138;2023-10-08T13:58:49;29.00;99.90
33994;DHT22;20673;48.980;8.138;2023-10-08T14:01:17;29.00;99.90
33994;DHT22;20673;48.980;8.138;2023-10-08T14:03:48;28.80;99.90
33994;DHT22;20673;48.980;8.138;2023-10-08T14:06:17;28.90;99.90
33994;DHT22;20673;48.980;8.138;2023-10-08T14:08:44;28.90;99.90
33994;DHT22;20673;48.980;8.138;2023-10-08T14:11:12;29.00;99.90
33994;DHT22;20673;48.980;8.138;2023-10-08T14:13:39;29.00;99.90
33994;DHT22;20673;48.980;8.138;2023-10-08T14:16:08;29.00;99.90
33994;DHT22;20673;48.980;8.138;2023-10-08T14:18:37;29.10;99.90
33994;DHT22;20673;48.980;8.138;2023-10-08T14:21:09;29.00;99.90
33994;DHT22;20673;48.980;8.138;2023-10-08T14:23:36;29.00;99.90
33994;DHT22;20673;48.980;8.138;2023-10-08T14:26:08;28.90;99.90
33994;DHT22;20673;48.980;8.138;2023-10-08T14:28:36;29.00;99.90
33994;DHT22;20673;48.980;8.138;2023-10-08T14:31:22;28.60;99.90
33994;DHT22;20673;48.980;8.138;2023-10-08T14:33:50;28.30;99.90
33994;DHT22;20673;48.980;8.138;2023-10-08T14:36:24;28.50;99.90
33994;DHT22;20673;48.980;8.138;2023-10-08T14:39:09;28.60;99.90
33994;DHT22;20673;48.980;8.138;2023-10-08T14:41:54;28.80;99.90
33994;DHT22;20673;48.980;8.138;2023-10-08T14:44:38;29.00;99.90
33994;DHT22;20673;48.980;8.138;2023-10-08T14:47:06;28.90;99.90
33994;DHT22;20673;48.980;8.138;2023-10-08T14:49:33;28.90;99.90
33994;DHT22;20673;48.980;8.138;2023-10-08T14:52:01;28.60;99.90
33994;DHT22;20673;48.980;8.138;2023-10-08T14:54:28;28.50;99.90
33994;DHT22;20673;48.980;8.138;2023-10-08T14:56:56;28.80;99.90
33994;DHT22;20673;48.980;8.138;2023-10-08T14:59:23;28.90;99.90
33994;DHT22;20673;48.980;8.138;2023-10-08T15:01:50;29.00;99.90
33994;DHT22;20673;48.980;8.138;2023-10-08T15:04:16;28.70;99.90
33994;DHT22;20673;48.980;8.138;2023-10-08T15:06:43;28.80;99.90
33994;DHT22;20673;48.980;8.138;2023-10-08T15:09:10;28.80;99.90
33994;DHT22;20673;48.980;8.138;2023-10-08T15:11:38;29.00;99.90
33994;DHT22;20673;48.980;8.138;2023-10-08T15:14:04;28.90;99.90
33994;DHT22;20673;48.980;8.138;2023-10-08T15:16:38;28.90;99.90
33994;DHT22;20673;48.980;8.138;2023-10-08T15:19:05;28.80;99.90
33994;DHT22;20673;48.980;8.138;2023-10-08T15:21:31;28.80;1.00
33994;DHT22;20673;48.980;8.138;2023-10-08T15:24:01;28.90;1.00
33994;DHT22;20673;48.980;8.138;2023-10-08T15:26:29;28.90;99.90
33994;DHT22;20673;48.980;8.138;2023-10-08T15:28:55;28.70;99.90
33994;DHT22;20673;48.980;8.138;2023-10-08T15:31:22;28.50;99.90
33994;DHT22;20673;48.980;8.138;2023-10-08T15:33:48;28.10;99.90
33994;DHT22;20673;48.980;8.138;2023-10-08T15:36:14;27.80;99.90
33994;DHT22;20673;48.980;8.138;2023-10-08T15:38:41;27.60;99.90
33994;DHT22;20673;48.980;8.138;2023-10-08T15:41:07;27.40;99.90
33994;DHT22;20673;48.980;8.138;2023-10-08T15:43:33;27.00;99.90
33994;DHT22;20673;48.980;8.138;2023-10-08T15:46:00;26.70;99.90
33994;DHT22;20673;48.980;8.138;2023-10-08T15:48:27;26.30;99.90
33994;DHT22;20673;48.980;8.138;2023-10-08T15:50:54;25.90;99.90
33994;DHT22;20673;48.980;8.138;2023-10-08T15:53:20;25.80;99.90
33994;DHT22;20673;48.980;8.138;2023-10-08T15:55:46;25.50;99.90
33994;DHT22;20673;48.980;8.138;2023-10-08T15:58:13;25.20;1.00
33994;DHT22;20673;48.980;8.138;2023-10-08T16:00:39;25.00;1.00
33994;DHT22;20673;48.980;8.138;2023-10-08T16:03:05;24.90;1.00
33994;DHT22;20673;48.980;8.138;2023-10-08T16:05:35;24.70;1.00